Kunszentmarton, Hungary
Current Conditions -  °F | °C
As of 6:45 PM on Friday 28 Nov 2014 (Local Time) from LHSN Reporting Station
Drizzle Drizzle  
Wind Chill: 26°   Ceiling: 200
Heat Index: 34°   Visibility: 0.5mi
Dew Point: 34°   Wind: 9mph
Humidity: 100%   Direction: 60°ENE
Pressure: 30.12"   Gusts: NA
Location:  46.84°N, 20.29°E
Report Text: LHSN 281645Z 06008KT 0800 -DZ FG BKN002 OVC004 01/01 Q1020 NOSIG RMK AMB
Loading
Personal Weather Stations






























Interactive Weather Map New forecast layout! Learn more

10-Day Weather Forecast

Advertisements
Track Severe Weather on mobile